Glendale Springs, NC

3:26 PM EST on December 28, 2014 (GMT -0500)
Windview Manor | Change Station
CLOSE
Current Station
Personal Weather Station
Location: Glendale Springs, NC
Elevation: 3219 ft
Nearby Weather Stations

Elev 3219 ft 36.36 °N, 81.35 °W | Updated 11 seconds ago

Overcast
Overcast
54.2 °F
Feels Like 54.2 °F
N
9.0
Wind Variable Wind from North
Gusts 12.0 mph

Today
High -- | Low -- °F
--% Chance of Precip.
Yesterday
High -- | Low -- °F
Precip. -- in
7:36 AM 5:18 PM
Waxing Crescent, 51% visible
Pressure 30.00 in
Visibility 10.0 miles
Clouds Scattered Clouds 2800 ft
Scattered Clouds 7000 ft
Scattered Clouds 10000 ft
Dew Point 47 °F
Humidity 77%
Rainfall 0.00 in
Snow Depth Not available.
UV 1 out of 12
Pollen .10 out of 12
Air Quality Not available.
Flu Activity Not available.
METAR KGEV 282015Z AUTO 28016G29KT 10SM SCT028 SCT070 SCT100 11/07 A3000 RMK AO2 T01110065

More Conditions Fewer Conditions

Pressure 30.00 in
Visibility 10.0 miles
Clouds Scattered Clouds 2800 ft
Scattered Clouds 7000 ft
Scattered Clouds 10000 ft
Dew Point 47 °F
Humidity 77%
Rainfall 0.00 in
Snow Depth Not available.
UV 1 out of 12
Pollen .10 out of 12
Air Quality Not available.
Flu Activity Not available.
METAR KGEV 282015Z AUTO 28016G29KT 10SM SCT028 SCT070 SCT100 11/07 A3000 RMK AO2 T01110065

More Conditions Fewer Conditions

10-Day Weather Forecast

Almanac

Astronomy

Dec. 28, 2014 Rise Set
Actual Time
Civil Twilight
Nautical Twilight
Astronomical Twilight
Moon
Length of Visible Light
Length of Day
Tomorrow will be .
, % of the Moon is Illuminated

Today's Extremes

State Highs State Lows

Community

WunderPhotos

Upload Photos

1,781,411 photos uploaded!

WunderBlogs® & News

Nearby

Air Quality

  Air Quality AQ Index Pollutant
Not available.

Snow Depth

Station Depth Elevation

Earthquake Activity

City Distance Mag. Time & Date
Minimum magnitude displayed is 2.5.

Coastal Water Temperatures

Place Temperature

Nearby Weather Stations